Terminal Aerodrome Forecast
Issued by NWS

Home | Current Version | Previous Version | Graphics & Text | Print | Product List | Glossary On
Versions: 1 2 3 4 5 6 7 8 9 10 11 12 13
444
FTUS43 KIWX 251120
TAFSBN
TAF
KSBN 251120Z 2512/2612 29006KT P6SM SCT250
     FM251300 29012G22KT P6SM SCT040
     FM260100 27007KT P6SM SCT100=

USA.gov is the U.S. government's official web portal to all federal, state and local government web resources and services.